Time;durP1;ratioP1;P1;durP2;ratioP2;P2;SDS_P1;SDS_P2;PMS_P1;PMS_P2;Temp;Humidity;BMP_temperature;BMP_pressure;BME280_temperature;BME280_humidity;BME280_pressure;Samples;Min_cycle;Max_cycle;Signal;HPM_P1;HPM_P2
2022/03/18 00:02:14;;;;;;;18.88;9.40;;;17.40;64.00;;;;;;5029192;28;20503;-60
2022/03/18 00:04:40;;;;;;;19.08;9.82;;;17.40;64.10;;;;;;5028854;28;20072;-60
2022/03/18 00:07:08;;;;;;;21.38;10.10;;;17.30;64.10;;;;;;5029439;28;20022;-60
2022/03/18 00:09:33;;;;;;;22.55;11.90;;;17.30;64.10;;;;;;5028415;28;20025;-62
2022/03/18 00:11:59;;;;;;;18.63;9.43;;;17.30;64.20;;;;;;5028498;28;20080;-60
2022/03/18 00:14:25;;;;;;;21.65;9.48;;;17.20;64.10;;;;;;5028606;28;20072;-58
2022/03/18 00:16:50;;;;;;;23.83;10.23;;;17.20;64.10;;;;;;5028395;28;20023;-59
2022/03/18 00:19:16;;;;;;;22.15;9.75;;;17.20;64.20;;;;;;5028842;28;20029;-64
2022/03/18 00:21:42;;;;;;;21.58;9.90;;;17.20;64.30;;;;;;5028396;28;20036;-61
2022/03/18 00:24:09;;;;;;;19.20;8.95;;;17.20;64.40;;;;;;5028867;28;20037;-60
2022/03/18 00:26:35;;;;;;;21.20;8.95;;;17.10;64.20;;;;;;5028286;28;20025;-61
2022/03/18 00:29:01;;;;;;;18.77;9.07;;;17.10;64.10;;;;;;5028201;28;20031;-59
2022/03/18 00:31:26;;;;;;;19.80;9.00;;;17.10;64.20;;;;;;5028467;28;20032;-60
2022/03/18 00:33:52;;;;;;;15.05;8.57;;;17.10;64.20;;;;;;5028230;28;20072;-59
2022/03/18 00:36:18;;;;;;;19.48;8.20;;;17.10;64.20;;;;;;5028308;28;20030;-62
2022/03/18 00:38:43;;;;;;;17.58;9.00;;;17.10;64.20;;;;;;5027714;28;20511;-61
2022/03/18 00:41:09;;;;;;;22.33;9.10;;;17.00;64.20;;;;;;5028103;28;20044;-60
2022/03/18 00:43:35;;;;;;;20.88;9.57;;;17.00;64.20;;;;;;5028081;28;20088;-60
2022/03/18 00:46:01;;;;;;;17.73;8.20;;;17.00;64.20;;;;;;5028003;28;20420;-61
2022/03/18 00:53:57;;;;;;;17.13;8.30;;;17.00;64.20;;;;;;5027747;28;20040;-61
2022/03/18 00:56:23;;;;;;;15.05;7.50;;;16.90;64.20;;;;;;5028206;28;20030;-61
2022/03/18 00:58:48;;;;;;;20.63;8.27;;;16.90;64.30;;;;;;5027819;28;20530;-61
2022/03/18 01:01:14;;;;;;;18.08;8.20;;;16.90;64.30;;;;;;5027944;28;20361;-62
2022/03/18 01:03:39;;;;;;;16.83;7.65;;;16.90;64.30;;;;;;5027926;28;20028;-54
2022/03/18 01:06:05;;;;;;;16.08;7.53;;;16.90;64.30;;;;;;5028065;28;20021;-57
2022/03/18 01:08:31;;;;;;;16.83;8.13;;;16.90;64.20;;;;;;5028232;28;20440;-60
2022/03/18 01:10:57;;;;;;;16.27;7.97;;;16.90;64.30;;;;;;5028317;28;20432;-58
2022/03/18 01:13:23;;;;;;;15.80;6.97;;;16.80;64.10;;;;;;5027253;28;20116;-62
2022/03/18 01:15:48;;;;;;;18.52;8.02;;;16.80;64.10;;;;;;5027789;28;20115;-60
2022/03/18 01:18:14;;;;;;;19.70;7.57;;;16.80;64.10;;;;;;5028020;28;20403;-59
2022/03/18 01:20:39;;;;;;;18.02;8.25;;;16.80;64.20;;;;;;5027637;28;20053;-60
2022/03/18 01:23:06;;;;;;;16.70;7.43;;;16.80;64.30;;;;;;5027585;28;20029;-62
2022/03/18 01:25:32;;;;;;;13.77;6.57;;;16.80;64.20;;;;;;5027617;28;20025;-62
2022/03/18 01:28:01;;;;;;;15.25;7.75;;;16.80;64.20;;;;;;5027488;28;20014;-62
2022/03/18 01:30:30;;;;;;;14.85;6.57;;;16.70;64.10;;;;;;5027813;28;20029;-61
2022/03/18 01:32:56;;;;;;;14.05;6.53;;;16.70;64.20;;;;;;5027480;28;20026;-60
2022/03/18 01:35:22;;;;;;;12.88;5.70;;;16.70;64.20;;;;;;5027639;28;20029;-63
2022/03/18 01:37:49;;;;;;;16.63;7.30;;;16.70;64.20;;;;;;5027310;28;20867;-61
2022/03/18 01:40:14;;;;;;;15.88;6.88;;;16.70;64.30;;;;;;5028109;28;20025;-60
2022/03/18 01:42:40;;;;;;;15.18;7.50;;;16.70;64.20;;;;;;5027713;28;20507;-54
2022/03/18 01:45:07;;;;;;;12.52;6.32;;;16.70;64.10;;;;;;5027054;28;20021;-57
2022/03/18 01:47:33;;;;;;;12.05;6.32;;;16.70;64.10;;;;;;5027624;28;20655;-55
2022/03/18 01:49:59;;;;;;;13.73;6.97;;;16.60;64.10;;;;;;5027599;28;20092;-60
2022/03/18 01:52:25;;;;;;;15.77;6.63;;;16.60;64.20;;;;;;5027450;28;20479;-60
2022/03/18 01:54:51;;;;;;;13.65;6.22;;;16.60;64.30;;;;;;5027453;28;20023;-59
2022/03/18 01:57:23;;;;;;;15.20;5.70;;;16.60;64.30;;;;;;5027845;28;20076;-59
2022/03/18 01:59:51;;;;;;;12.38;6.47;;;16.60;64.30;;;;;;5027402;28;20053;-62
2022/03/18 02:02:17;;;;;;;13.55;5.90;;;16.50;64.20;;;;;;5027715;28;20384;-60
2022/03/18 02:04:44;;;;;;;13.65;6.35;;;16.50;64.20;;;;;;5027198;28;20487;-61
2022/03/18 02:07:10;;;;;;;12.82;6.25;;;16.50;64.10;;;;;;5029229;28;20045;-60
2022/03/18 02:09:38;;;;;;;13.73;6.00;;;16.50;64.20;;;;;;5030915;28;20585;-61
2022/03/18 02:12:05;;;;;;;14.02;6.32;;;16.50;64.30;;;;;;5031008;28;20116;-60
2022/03/18 02:14:36;;;;;;;15.07;6.15;;;16.40;64.30;;;;;;5030748;28;20025;-62
2022/03/18 02:17:04;;;;;;;12.25;5.65;;;16.40;64.20;;;;;;5030691;28;20612;-61
2022/03/18 02:19:29;;;;;;;12.95;6.82;;;16.40;64.20;;;;;;5030163;28;20038;-61
2022/03/18 02:21:56;;;;;;;15.80;6.00;;;16.40;64.30;;;;;;5031087;28;20088;-57
2022/03/18 02:24:23;;;;;;;11.00;5.68;;;16.40;64.30;;;;;;5030320;28;20411;-57
2022/03/18 02:26:50;;;;;;;11.80;5.93;;;16.30;64.90;;;;;;5030343;28;20029;-58
2022/03/18 02:29:18;;;;;;;11.90;5.68;;;16.30;64.30;;;;;;5030666;28;20029;-59
2022/03/18 02:31:43;;;;;;;12.73;5.85;;;16.20;64.60;;;;;;5030253;28;20534;-59
2022/03/18 02:34:09;;;;;;;12.55;5.57;;;16.30;64.60;;;;;;5030588;28;20053;-61
2022/03/18 02:36:35;;;;;;;12.50;5.70;;;16.30;64.60;;;;;;5030289;28;20104;-60
2022/03/18 02:39:01;;;;;;;11.52;5.22;;;16.30;65.10;;;;;;5030108;28;20041;-60
2022/03/18 02:41:26;;;;;;;14.07;6.47;;;16.20;64.50;;;;;;5030295;28;20033;-60
2022/03/18 02:43:52;;;;;;;12.48;5.22;;;16.20;64.30;;;;;;5030235;28;20184;-61
2022/03/18 02:46:17;;;;;;;11.98;5.63;;;16.20;64.50;;;;;;5029672;28;20025;-60
2022/03/18 02:48:43;;;;;;;11.20;4.82;;;16.20;64.30;;;;;;5029296;28;20044;-60
2022/03/18 02:51:09;;;;;;;11.35;5.55;;;16.20;64.50;;;;;;5029569;28;20033;-60
2022/03/18 02:53:35;;;;;;;10.88;4.63;;;16.10;64.50;;;;;;5029520;28;20605;-60
2022/03/18 02:56:03;;;;;;;9.45;4.53;;;16.10;64.50;;;;;;5029605;28;20028;-61
2022/03/18 02:58:29;;;;;;;11.88;5.47;;;16.10;64.50;;;;;;5030114;28;20155;-62
2022/03/18 03:00:55;;;;;;;11.80;5.47;;;16.20;64.60;;;;;;5029898;28;20434;-62
2022/03/18 03:03:20;;;;;;;11.68;5.20;;;16.10;64.50;;;;;;5030489;28;20021;-61
2022/03/18 03:08:31;;;;;;;9.45;5.15;;;16.10;64.40;;;;;;5029435;28;20041;-56
2022/03/18 03:10:57;;;;;;;11.43;4.82;;;16.10;65.20;;;;;;5029592;28;20163;-57
2022/03/18 03:13:24;;;;;;;9.00;4.50;;;16.10;64.50;;;;;;5029720;28;20023;-58
2022/03/18 03:15:50;;;;;;;12.13;4.68;;;16.00;64.50;;;;;;5029607;28;20020;-59
2022/03/18 03:18:16;;;;;;;9.48;3.85;;;16.00;64.60;;;;;;5029517;28;20037;-60
2022/03/18 03:20:41;;;;;;;11.02;4.38;;;16.00;64.50;;;;;;5029646;28;20783;-60
2022/03/18 03:23:07;;;;;;;9.35;4.15;;;16.00;64.50;;;;;;5029357;28;20021;-61
2022/03/18 03:25:33;;;;;;;10.80;4.20;;;16.00;64.50;;;;;;5029550;28;20475;-63
2022/03/18 03:27:59;;;;;;;11.82;4.75;;;15.90;65.50;;;;;;5029547;28;20399;-62
2022/03/18 03:30:24;;;;;;;9.68;4.95;;;15.90;65.30;;;;;;5029420;28;20025;-60
2022/03/18 03:32:51;;;;;;;11.38;5.20;;;15.80;65.10;;;;;;5029028;28;20079;-62
2022/03/18 03:35:18;;;;;;;10.18;4.15;;;15.80;65.10;;;;;;5029563;28;20030;-61
2022/03/18 03:37:44;;;;;;;11.45;4.20;;;15.90;64.80;;;;;;5028798;28;20040;-58
2022/03/18 03:40:14;;;;;;;8.50;3.65;;;15.90;64.60;;;;;;5009688;28;20022;-58
2022/03/18 03:42:41;;;;;;;9.50;3.50;;;15.80;64.60;;;;;;5024037;28;20337;-57
2022/03/18 03:45:07;;;;;;;8.93;4.18;;;15.80;64.70;;;;;;5028991;28;20017;-58
2022/03/18 03:47:33;;;;;;;8.75;4.72;;;15.80;64.80;;;;;;5028859;28;20758;-58
2022/03/18 03:49:59;;;;;;;12.05;5.32;;;15.70;64.90;;;;;;5029248;28;20029;-59
2022/03/18 03:52:24;;;;;;;8.90;4.13;;;15.70;65.00;;;;;;5028498;28;20072;-58
2022/03/18 03:54:50;;;;;;;8.25;4.13;;;15.70;65.10;;;;;;5028733;28;20025;-58
2022/03/18 03:57:15;;;;;;;7.55;3.70;;;15.70;65.10;;;;;;5028757;28;20387;-59
2022/03/18 03:59:41;;;;;;;9.30;3.70;;;15.70;65.10;;;;;;5029177;28;20029;-58
2022/03/18 04:02:08;;;;;;;9.93;4.38;;;15.70;65.30;;;;;;5028754;28;20021;-56
2022/03/18 04:04:33;;;;;;;11.32;4.63;;;15.60;65.20;;;;;;5028555;28;20029;-57
2022/03/18 04:06:59;;;;;;;11.68;4.15;;;15.60;65.30;;;;;;5028303;28;20075;-57
2022/03/18 04:09:25;;;;;;;9.52;3.97;;;15.50;65.20;;;;;;5028568;28;20025;-58
2022/03/18 04:11:50;;;;;;;11.30;4.32;;;15.60;65.30;;;;;;5028608;28;20075;-58
2022/03/18 04:14:16;;;;;;;9.23;3.58;;;15.60;65.40;;;;;;5028413;28;20026;-58
2022/03/18 04:16:44;;;;;;;8.02;4.03;;;15.60;65.30;;;;;;5028580;28;20053;-58
2022/03/18 04:19:11;;;;;;;9.52;3.45;;;15.60;65.30;;;;;;5028300;28;20029;-57
2022/03/18 04:21:36;;;;;;;8.63;3.92;;;15.60;65.40;;;;;;5028977;28;20057;-58
2022/03/18 04:24:02;;;;;;;10.07;3.90;;;15.50;65.40;;;;;;5027953;28;20041;-59
2022/03/18 04:26:27;;;;;;;8.85;4.03;;;15.50;65.50;;;;;;5028384;28;20731;-58
2022/03/18 04:28:53;;;;;;;11.75;3.65;;;15.50;65.50;;;;;;5027580;28;20057;-58
2022/03/18 04:31:19;;;;;;;10.38;3.35;;;15.50;65.60;;;;;;5028246;28;20121;-58
2022/03/18 04:33:45;;;;;;;9.73;3.58;;;15.50;65.50;;;;;;5028386;28;20031;-58
2022/03/18 04:36:10;;;;;;;9.02;3.85;;;15.40;65.40;;;;;;5028177;28;20087;-56
2022/03/18 04:38:36;;;;;;;8.77;3.90;;;15.40;65.50;;;;;;5028100;28;20033;-57
2022/03/18 04:41:02;;;;;;;8.95;3.45;;;15.40;65.60;;;;;;5028103;28;20120;-58
2022/03/18 04:43:27;;;;;;;10.90;3.70;;;15.40;65.50;;;;;;5027821;28;20471;-57
2022/03/18 04:45:53;;;;;;;9.57;3.58;;;15.40;65.50;;;;;;5028457;28;20025;-56
2022/03/18 04:48:19;;;;;;;10.25;3.85;;;15.40;65.50;;;;;;5028417;28;20030;-57
2022/03/18 04:50:44;;;;;;;7.88;3.33;;;15.40;65.50;;;;;;5027994;28;20021;-58
2022/03/18 04:53:10;;;;;;;8.13;3.45;;;15.40;65.60;;;;;;5027973;28;20053;-58
2022/03/18 04:55:35;;;;;;;9.25;3.03;;;15.30;65.50;;;;;;5027965;28;20403;-58
2022/03/18 04:58:01;;;;;;;10.77;3.65;;;15.30;65.60;;;;;;5027942;28;20099;-57
2022/03/18 05:00:27;;;;;;;11.13;3.75;;;15.30;65.50;;;;;;5027798;28;20055;-58
2022/03/18 05:02:52;;;;;;;7.75;3.22;;;15.30;65.60;;;;;;5027282;28;20028;-58
2022/03/18 05:05:19;;;;;;;7.15;3.22;;;15.30;65.70;;;;;;5027449;28;20480;-57
2022/03/18 05:07:54;;;;;;;8.75;3.85;;;15.30;65.60;;;;;;5028159;28;20490;-58
2022/03/18 05:10:22;;;;;;;7.28;3.15;;;15.30;65.70;;;;;;5027700;28;20021;-57
2022/03/18 05:12:48;;;;;;;11.05;3.22;;;15.30;65.80;;;;;;5028139;28;20028;-58
2022/03/18 05:15:14;;;;;;;9.60;3.30;;;15.30;65.90;;;;;;5027438;28;20087;-57
2022/03/18 05:17:40;;;;;;;10.68;3.65;;;15.40;65.20;;;;;;5028126;28;20033;-56
2022/03/18 05:20:09;;;;;;;11.45;5.53;;;15.30;61.10;;;;;;5027194;28;20024;-57
2022/03/18 05:22:35;;;;;;;13.98;5.47;;;12.90;55.30;;;;;;5031423;28;20033;-53
2022/03/18 05:25:01;;;;;;;12.93;5.45;;;11.30;57.30;;;;;;5027308;28;20022;-57
2022/03/18 05:27:30;;;;;;;10.80;4.35;;;10.70;58.40;;;;;;5022605;28;20044;-58
2022/03/18 05:29:56;;;;;;;14.80;5.00;;;11.50;58.90;;;;;;5044094;28;20029;-56
2022/03/18 05:32:22;;;;;;;12.50;4.75;;;12.80;57.00;;;;;;5027015;28;20776;-57
2022/03/18 05:34:48;;;;;;;10.93;4.30;;;13.70;56.70;;;;;;5027200;28;20033;-57
2022/03/18 05:37:13;;;;;;;16.38;4.75;;;14.10;56.40;;;;;;5025707;28;20079;-56
2022/03/18 05:39:39;;;;;;;14.32;4.43;;;14.40;56.10;;;;;;5032189;28;20033;-56
2022/03/18 05:42:05;;;;;;;8.77;3.92;;;14.50;55.90;;;;;;5038394;28;20027;-53
2022/03/18 05:44:31;;;;;;;11.88;4.65;;;14.60;56.00;;;;;;5044107;28;20021;-57
2022/03/18 05:46:56;;;;;;;9.38;3.95;;;14.60;56.30;;;;;;5032823;28;20071;-57
2022/03/18 05:49:23;;;;;;;12.02;5.00;;;14.70;56.50;;;;;;5036360;28;20033;-52
2022/03/18 05:51:48;;;;;;;10.80;3.90;;;14.70;56.90;;;;;;5044265;28;20106;-58
2022/03/18 05:54:14;;;;;;;10.07;3.88;;;14.70;57.90;;;;;;5045286;28;20422;-55
2022/03/18 05:56:53;;;;;;;12.63;4.03;;;14.70;57.60;;;;;;5035922;28;20021;-56
2022/03/18 05:59:31;;;;;;;10.32;4.00;;;14.70;58.00;;;;;;5026828;28;20048;-57
2022/03/18 06:01:59;;;;;;;9.82;4.22;;;14.40;56.20;;;;;;5033153;28;20383;-56
2022/03/18 06:04:26;;;;;;;18.08;5.38;;;14.50;58.00;;;;;;5030049;28;20056;-56
2022/03/18 06:06:52;;;;;;;7.68;3.80;;;14.60;58.20;;;;;;5037034;28;20097;-55
2022/03/18 06:12:05;;;;;;;14.40;4.07;;;14.60;58.50;;;;;;5040310;28;20041;-55
2022/03/18 06:14:31;;;;;;;19.27;3.75;;;14.60;58.90;;;;;;5030295;28;20025;-55
2022/03/18 06:16:59;;;;;;;15.55;4.13;;;14.60;59.00;;;;;;5030065;28;20028;-54
2022/03/18 06:19:26;;;;;;;17.25;3.88;;;14.60;59.60;;;;;;5030017;28;20040;-56
2022/03/18 06:21:52;;;;;;;17.23;4.97;;;14.60;59.70;;;;;;5032984;28;20024;-55
2022/03/18 06:24:21;;;;;;;14.90;3.63;;;14.60;60.00;;;;;;5030484;28;20021;-57
2022/03/18 06:26:47;;;;;;;13.68;3.05;;;14.60;60.20;;;;;;5029871;28;20033;-54
2022/03/18 06:29:13;;;;;;;16.90;4.07;;;14.70;60.40;;;;;;5030262;28;20029;-57
2022/03/18 06:31:42;;;;;;;15.57;3.78;;;14.80;60.30;;;;;;5029761;28;20028;-57
2022/03/18 06:34:10;;;;;;;15.23;3.53;;;14.90;60.20;;;;;;5028586;28;20039;-57
2022/03/18 06:36:36;;;;;;;14.80;3.42;;;14.90;60.20;;;;;;5029795;28;20365;-56
2022/03/18 06:39:03;;;;;;;15.25;4.00;;;15.00;60.20;;;;;;5028931;28;20041;-57
2022/03/18 06:41:29;;;;;;;8.38;3.45;;;15.00;60.30;;;;;;5029629;28;20022;-58
2022/03/18 06:43:57;;;;;;;21.77;4.57;;;15.00;60.20;;;;;;5029405;28;20022;-57
2022/03/18 06:46:24;;;;;;;15.63;4.18;;;15.10;60.30;;;;;;5029729;28;20040;-58
2022/03/18 06:48:50;;;;;;;12.43;3.10;;;15.10;60.40;;;;;;5029117;28;20476;-55
2022/03/18 06:51:16;;;;;;;14.10;3.83;;;15.10;60.50;;;;;;5030211;28;20033;-57
2022/03/18 06:53:42;;;;;;;11.68;3.17;;;15.10;60.60;;;;;;5029028;28;20024;-55
2022/03/18 06:56:09;;;;;;;12.82;3.60;;;15.10;60.70;;;;;;5029201;28;20942;-57
2022/03/18 06:58:35;;;;;;;13.35;3.45;;;15.10;60.80;;;;;;5029099;28;20053;-55
2022/03/18 07:01:01;;;;;;;16.85;3.60;;;15.10;60.90;;;;;;5028769;28;20060;-56
2022/03/18 07:03:27;;;;;;;9.10;3.33;;;15.10;60.70;;;;;;5028773;28;20203;-56
2022/03/18 07:05:52;;;;;;;10.57;3.08;;;15.20;60.60;;;;;;5028988;28;20021;-55
2022/03/18 07:08:18;;;;;;;12.73;2.83;;;15.10;60.70;;;;;;5028208;28;20029;-55
2022/03/18 07:10:44;;;;;;;11.07;2.92;;;15.20;60.70;;;;;;5029828;28;20112;-57
2022/03/18 07:13:09;;;;;;;13.20;3.55;;;15.20;60.70;;;;;;5029351;28;20598;-60
2022/03/18 07:15:35;;;;;;;14.38;2.65;;;15.30;61.20;;;;;;5029982;28;20213;-58
2022/03/18 07:18:03;;;;;;;13.40;3.08;;;15.50;61.20;;;;;;5030275;28;20029;-57
2022/03/18 07:20:39;;;;;;;12.45;2.22;;;15.70;60.70;;;;;;5028259;28;20083;-54
2022/03/18 07:23:13;;;;;;;23.27;2.80;;;15.90;60.30;;;;;;5028621;28;20582;-58
2022/03/18 07:25:48;;;;;;;18.40;2.70;;;16.30;60.00;;;;;;5026905;28;20029;-55
2022/03/18 07:28:16;;;;;;;15.23;2.38;;;16.70;59.40;;;;;;5030384;28;20072;-58
2022/03/18 07:30:44;;;;;;;16.83;2.55;;;16.90;59.00;;;;;;5022566;28;20029;-58
2022/03/18 07:33:10;;;;;;;18.00;3.30;;;17.10;58.80;;;;;;5029825;28;20029;-58
2022/03/18 07:35:36;;;;;;;29.13;3.25;;;17.40;59.30;;;;;;5029026;28;20029;-55
2022/03/18 07:38:05;;;;;;;22.30;2.97;;;17.50;58.30;;;;;;5029055;28;20052;-60
2022/03/18 07:40:30;;;;;;;31.13;3.47;;;17.70;58.60;;;;;;5028233;28;20151;-55
2022/03/18 07:42:57;;;;;;;27.67;2.90;;;17.80;57.90;;;;;;5029354;28;20025;-58
2022/03/18 07:45:26;;;;;;;25.67;2.78;;;17.90;57.70;;;;;;5028746;28;20025;-59
2022/03/18 07:47:52;;;;;;;18.88;2.70;;;17.90;57.90;;;;;;5029057;28;20495;-59
2022/03/18 07:50:20;;;;;;;24.85;3.53;;;18.00;58.10;;;;;;5028765;28;20030;-60
2022/03/18 07:53:00;;;;;;;28.45;3.40;;;18.00;58.10;;;;;;5029095;28;20148;-57
2022/03/18 07:55:29;;;;;;;;;;;18.00;58.40;;;;;;5029984;28;20021;-60
2022/03/18 07:57:57;;;;;;;28.35;3.55;;;18.00;58.70;;;;;;5028843;28;19908;-58
2022/03/18 08:00:24;;;;;;;18.02;3.10;;;18.10;59.00;;;;;;5028323;28;20049;-60
2022/03/18 08:02:51;;;;;;;23.67;3.50;;;18.10;59.50;;;;;;5028405;28;20029;-59
2022/03/18 08:05:17;;;;;;;24.05;4.60;;;18.20;60.00;;;;;;5027881;28;20040;-59
2022/03/18 08:07:44;;;;;;;17.05;5.63;;;18.30;56.80;;;;;;5023738;28;20017;-60
2022/03/18 08:10:11;;;;;;;17.60;5.28;;;16.20;53.10;;;;;;5027900;28;20025;-59
2022/03/18 08:12:38;;;;;;;14.98;5.10;;;15.00;54.80;;;;;;5024733;28;20025;-58
2022/03/18 08:15:14;;;;;;;13.57;5.47;;;14.50;56.30;;;;;;5022331;28;20026;-55
2022/03/18 08:17:43;;;;;;;16.60;5.57;;;14.20;55.70;;;;;;5023351;28;20080;-53
2022/03/18 08:20:12;;;;;;;16.80;5.40;;;14.00;55.80;;;;;;5022451;28;20037;-58
2022/03/18 08:22:38;;;;;;;15.73;5.72;;;13.90;56.00;;;;;;5023254;28;20541;-58
2022/03/18 08:25:04;;;;;;;15.00;5.05;;;14.20;56.40;;;;;;5022450;28;20113;-55
2022/03/18 08:27:30;;;;;;;17.30;5.95;;;14.10;55.50;;;;;;5025070;28;20022;-56
2022/03/18 08:29:59;;;;;;;26.10;5.82;;;14.00;55.60;;;;;;5023997;28;20017;-59
2022/03/18 08:32:28;;;;;;;17.48;5.53;;;13.90;55.20;;;;;;5023403;28;20475;-59
2022/03/18 08:34:55;;;;;;;14.32;5.65;;;13.70;55.50;;;;;;5021970;28;20014;-58
2022/03/18 08:37:56;;;;;;;15.40;5.22;;;13.60;55.60;;;;;;5022519;28;20100;-61
2022/03/18 08:40:08;;;;;;;16.30;5.30;;;13.50;56.10;;;;;;5022373;28;20040;-60
2022/03/18 08:42:34;;;;;;;20.08;5.47;;;14.70;55.00;;;;;;5023519;28;20040;-57
2022/03/18 08:45:01;;;;;;;17.63;5.43;;;15.60;53.30;;;;;;5024684;28;20021;-55
2022/03/18 08:47:26;;;;;;;16.27;5.15;;;16.20;52.40;;;;;;5023001;28;20053;-58
2022/03/18 08:49:52;;;;;;;27.63;5.63;;;16.60;52.50;;;;;;5022405;28;20056;-57
2022/03/18 08:52:18;;;;;;;31.95;5.70;;;16.90;52.50;;;;;;5023118;28;20049;-58
2022/03/18 08:54:43;;;;;;;27.02;5.63;;;17.20;52.80;;;;;;5023245;28;20100;-61
2022/03/18 08:57:10;;;;;;;24.17;4.60;;;17.40;53.10;;;;;;5024267;28;20080;-61
2022/03/18 08:59:35;;;;;;;29.00;5.90;;;17.50;53.20;;;;;;5025072;28;20109;-61
2022/03/18 09:02:01;;;;;;;27.23;5.03;;;17.70;53.50;;;;;;5021157;28;20109;-62
2022/03/18 09:04:26;;;;;;;27.92;4.93;;;17.90;53.60;;;;;;5022822;28;20379;-61
2022/03/18 09:06:52;;;;;;;21.65;4.20;;;17.90;53.70;;;;;;5023055;28;20021;-63
2022/03/18 09:09:18;;;;;;;28.67;5.22;;;17.90;54.00;;;;;;5023855;28;21459;-63
2022/03/18 09:11:44;;;;;;;24.88;4.28;;;18.00;54.50;;;;;;5024648;28;20459;-60
2022/03/18 09:14:10;;;;;;;17.17;4.53;;;18.10;54.40;;;;;;5021856;28;20029;-60
2022/03/18 09:16:38;;;;;;;22.58;5.13;;;18.10;54.60;;;;;;5028551;28;20029;-60
2022/03/18 09:19:07;;;;;;;23.25;5.70;;;18.20;54.70;;;;;;5026524;28;21020;-60
2022/03/18 09:21:34;;;;;;;28.85;4.28;;;18.20;54.90;;;;;;5028106;28;20029;-62
2022/03/18 09:24:00;;;;;;;23.50;3.90;;;18.40;55.10;;;;;;5027224;28;20029;-64
2022/03/18 09:26:26;;;;;;;19.67;4.28;;;18.40;55.00;;;;;;5027572;28;20036;-61
2022/03/18 09:28:52;;;;;;;22.30;4.57;;;18.40;55.50;;;;;;5025911;28;20021;-60
2022/03/18 09:31:18;;;;;;;26.15;4.35;;;18.50;55.40;;;;;;5026844;28;20029;-50
2022/03/18 09:33:46;;;;;;;18.85;4.85;;;18.50;55.70;;;;;;5027052;28;20029;-60
2022/03/18 09:36:12;;;;;;;18.80;3.72;;;18.60;55.90;;;;;;5027844;28;20064;-60
2022/03/18 09:38:38;;;;;;;24.33;3.53;;;18.60;55.80;;;;;;5028530;28;20029;-61
2022/03/18 09:41:05;;;;;;;14.95;4.03;;;18.70;55.80;;;;;;5027467;28;20064;-59
2022/03/18 09:43:36;;;;;;;16.02;3.38;;;18.70;55.80;;;;;;5024362;28;20064;-60
2022/03/18 09:46:08;;;;;;;14.27;3.90;;;18.70;55.90;;;;;;5028177;28;20133;-58
2022/03/18 09:48:34;;;;;;;15.05;3.35;;;18.80;55.90;;;;;;5026222;28;20765;-60
2022/03/18 09:51:00;;;;;;;19.92;4.05;;;18.90;55.90;;;;;;5024866;28;20014;-60
2022/03/18 09:53:26;;;;;;;19.67;3.50;;;18.90;55.80;;;;;;5023784;28;20032;-57
2022/03/18 09:55:52;;;;;;;12.07;3.03;;;18.90;55.90;;;;;;5025914;28;20021;-61
2022/03/18 09:58:19;;;;;;;16.42;3.58;;;19.00;55.70;;;;;;5024446;28;20095;-59
2022/03/18 10:00:46;;;;;;;23.77;3.33;;;19.10;55.60;;;;;;5026926;28;20029;-60
2022/03/18 10:03:17;;;;;;;15.02;2.85;;;19.20;55.50;;;;;;5028252;28;20032;-60
2022/03/18 10:05:57;;;;;;;18.08;3.63;;;19.30;55.60;;;;;;5024669;28;20667;-60
2022/03/18 10:08:23;;;;;;;17.77;4.03;;;19.30;55.60;;;;;;5027346;28;20031;-60
2022/03/18 10:10:49;;;;;;;15.57;3.58;;;19.40;55.50;;;;;;5022815;28;20037;-60
2022/03/18 10:13:16;;;;;;;14.88;3.83;;;19.40;55.60;;;;;;5025814;28;20017;-60
2022/03/18 10:15:44;;;;;;;23.92;4.28;;;19.50;55.60;;;;;;5028094;28;20025;-62
2022/03/18 10:18:12;;;;;;;19.42;3.80;;;19.60;55.60;;;;;;5026252;28;20848;-60
2022/03/18 10:20:43;;;;;;;21.92;3.65;;;19.70;55.80;;;;;;5025151;28;20044;-60
2022/03/18 10:23:14;;;;;;;23.42;3.15;;;19.70;55.80;;;;;;5025598;28;20504;-60
2022/03/18 10:25:51;;;;;;;42.95;5.55;;;19.70;55.60;;;;;;5026324;28;20036;-60
2022/03/18 10:28:37;;;;;;;28.00;4.18;;;19.80;56.10;;;;;;5025244;28;20104;-60
2022/03/18 10:31:29;;;;;;;23.98;3.80;;;19.90;55.50;;;;;;5025958;28;20021;-61
2022/03/18 10:39:33;;;;;;;31.58;3.70;;;20.00;55.60;;;;;;5026301;28;20138;-59
2022/03/18 10:42:02;;;;;;;26.52;4.57;;;20.10;55.70;;;;;;5024715;28;20472;-58
2022/03/18 10:44:41;;;;;;;22.42;3.35;;;20.10;55.70;;;;;;5024945;28;20029;-59
2022/03/18 10:47:07;;;;;;;20.15;3.35;;;20.20;55.40;;;;;;5024036;28;20021;-58
2022/03/18 10:49:32;;;;;;;15.63;3.47;;;20.20;55.40;;;;;;5025715;28;20054;-58
2022/03/18 10:52:09;;;;;;;22.95;3.55;;;20.30;55.40;;;;;;5025437;28;20045;-59
2022/03/18 10:54:35;;;;;;;17.02;3.90;;;20.30;55.30;;;;;;5022948;28;20041;-58
2022/03/18 10:57:00;;;;;;;17.30;3.28;;;20.40;55.30;;;;;;5023179;28;20030;-59
2022/03/18 10:59:27;;;;;;;32.10;4.30;;;20.40;55.40;;;;;;5024723;28;20056;-60
2022/03/18 11:01:56;;;;;;;16.20;2.63;;;20.50;55.00;;;;;;5023908;28;20096;-55
2022/03/18 11:04:23;;;;;;;79.97;6.95;;;20.70;55.00;;;;;;5024913;28;20079;-57
2022/03/18 11:12:31;;;;;;;50.78;5.45;;;20.90;54.70;;;;;;5024043;28;20792;-58
2022/03/18 11:14:57;;;;;;;50.15;5.45;;;20.70;54.80;;;;;;5024192;28;20163;-59
2022/03/18 11:17:24;;;;;;;33.90;4.93;;;20.50;55.20;;;;;;5025487;28;20167;-59
2022/03/18 11:19:52;;;;;;;39.97;4.65;;;20.50;54.70;;;;;;5025427;28;20030;-59
2022/03/18 11:22:20;;;;;;;53.05;5.95;;;20.50;54.70;;;;;;5024235;28;20036;-59
2022/03/18 11:24:49;;;;;;;39.38;3.95;;;20.40;55.40;;;;;;5023680;28;20021;-59
2022/03/18 11:27:17;;;;;;;42.08;5.75;;;20.40;55.80;;;;;;5024275;28;20483;-59
2022/03/18 11:29:43;;;;;;;36.30;4.25;;;20.50;55.90;;;;;;5021123;28;20037;-60
2022/03/18 11:32:12;;;;;;;32.33;4.10;;;20.50;55.90;;;;;;5025076;28;20038;-59
2022/03/18 11:35:03;;;;;;;39.22;4.57;;;20.60;56.00;;;;;;5023203;28;20041;-60
2022/03/18 11:37:29;;;;;;;23.55;3.55;;;20.60;55.90;;;;;;5022716;28;20412;-59
2022/03/18 11:40:17;;;;;;;37.53;4.30;;;20.70;55.80;;;;;;5026011;28;20116;-59
2022/03/18 11:42:45;;;;;;;37.75;4.45;;;20.70;54.80;;;;;;5036495;28;20029;-59
2022/03/18 11:45:32;;;;;;;26.92;3.08;;;20.70;55.20;;;;;;5040197;28;20120;-59
2022/03/18 11:47:58;;;;;;;28.23;4.50;;;20.80;55.20;;;;;;5037797;28;20036;-59
2022/03/18 11:50:43;;;;;;;35.58;4.43;;;20.90;55.00;;;;;;5028156;28;20021;-59
2022/03/18 11:53:12;;;;;;;56.58;5.57;;;20.90;54.80;;;;;;5029421;28;20629;-60
2022/03/18 11:55:39;;;;;;;22.95;3.70;;;21.00;54.80;;;;;;5028468;28;20078;-59
2022/03/18 11:58:25;;;;;;;33.22;4.47;;;21.10;54.70;;;;;;5031619;28;20037;-60
2022/03/18 12:00:50;;;;;;;35.38;4.50;;;21.10;54.60;;;;;;5029323;28;20745;-60
2022/03/18 12:03:20;;;;;;;32.05;4.35;;;21.20;54.60;;;;;;5044874;28;20058;-60
2022/03/18 12:05:54;;;;;;;;;;;21.20;54.50;;;;;;5022969;28;20134;-60
2022/03/18 12:08:51;;;;;;;28.83;4.22;;;21.20;54.60;;;;;;5041335;28;19909;-60
2022/03/18 12:11:32;;;;;;;25.55;3.50;;;21.10;54.80;;;;;;5017949;28;20492;-60
2022/03/18 12:13:59;;;;;;;25.70;3.88;;;21.00;55.00;;;;;;5028520;28;20440;-60
2022/03/18 12:16:24;;;;;;;28.38;3.90;;;21.00;55.10;;;;;;5026783;28;20419;-61
2022/03/18 12:19:01;;;;;;;20.85;4.32;;;21.00;55.20;;;;;;5037831;28;20033;-60
2022/03/18 12:21:39;;;;;;;24.08;3.40;;;20.90;55.40;;;;;;5033510;28;20447;-58
2022/03/18 12:24:08;;;;;;;33.35;4.45;;;20.90;55.50;;;;;;5036692;28;20024;-59
2022/03/18 12:26:35;;;;;;;21.10;3.53;;;20.90;55.40;;;;;;5032572;28;20033;-59
2022/03/18 12:29:03;;;;;;;18.92;3.28;;;20.90;55.40;;;;;;5022778;28;20039;-59
2022/03/18 12:31:29;;;;;;;18.20;3.08;;;21.00;55.60;;;;;;5023058;28;20036;-59
2022/03/18 12:34:07;;;;;;;30.13;3.78;;;21.00;55.50;;;;;;5034444;28;20021;-59
2022/03/18 12:36:33;;;;;;;31.00;3.67;;;21.00;55.50;;;;;;5031037;28;20024;-59
2022/03/18 12:39:13;;;;;;;22.45;3.80;;;21.00;55.40;;;;;;5028814;28;20198;-59
2022/03/18 12:41:41;;;;;;;14.48;3.42;;;21.10;55.20;;;;;;5025831;28;20100;-59
2022/03/18 12:44:06;;;;;;;22.27;3.42;;;21.20;55.00;;;;;;5027531;28;20487;-59
2022/03/18 12:46:34;;;;;;;23.75;10.15;;;21.30;54.70;;;;;;5026819;28;20014;-59
2022/03/18 12:49:00;;;;;;;35.55;11.68;;;21.20;54.70;;;;;;5029173;28;20048;-59
2022/03/18 12:51:26;;;;;;;34.58;14.50;;;21.30;54.40;;;;;;5031462;28;20546;-59
2022/03/18 12:53:51;;;;;;;34.03;15.25;;;21.30;54.60;;;;;;5036441;28;20028;-60
2022/03/18 12:56:18;;;;;;;32.15;12.50;;;21.10;55.50;;;;;;5031334;28;20014;-59
2022/03/18 12:58:46;;;;;;;39.50;14.10;;;21.10;55.30;;;;;;5042117;28;20035;-60
2022/03/18 13:01:13;;;;;;;33.72;13.35;;;21.10;55.10;;;;;;5030151;28;20036;-59
2022/03/18 13:03:51;;;;;;;28.85;13.05;;;21.20;56.00;;;;;;5029239;28;20025;-59